sensor_id;sensor_type;location;lat;lon;timestamp;temperature;humidity
41262;DHT22;29629;52.532;13.352;2023-08-06T00:00:59;18.00;99.90
41262;DHT22;29629;52.532;13.352;2023-08-06T00:03:26;18.00;99.90
41262;DHT22;29629;52.532;13.352;2023-08-06T00:05:53;18.00;99.90
41262;DHT22;29629;52.532;13.352;2023-08-06T00:08:20;18.00;99.90
41262;DHT22;29629;52.532;13.352;2023-08-06T00:10:47;18.00;99.90
41262;DHT22;29629;52.532;13.352;2023-08-06T00:13:16;18.00;99.90
41262;DHT22;29629;52.532;13.352;2023-08-06T00:15:43;17.90;99.90
41262;DHT22;29629;52.532;13.352;2023-08-06T00:18:10;17.90;99.90
41262;DHT22;29629;52.532;13.352;2023-08-06T00:20:39;17.90;99.90
41262;DHT22;29629;52.532;13.352;2023-08-06T00:23:07;17.90;99.90
41262;DHT22;29629;52.532;13.352;2023-08-06T00:25:34;17.90;99.90
41262;DHT22;29629;52.532;13.352;2023-08-06T00:28:00;17.80;99.90
41262;DHT22;29629;52.532;13.352;2023-08-06T00:30:29;17.80;99.90
41262;DHT22;29629;52.532;13.352;2023-08-06T00:32:56;17.80;99.90
41262;DHT22;29629;52.532;13.352;2023-08-06T00:35:22;17.80;99.90
41262;DHT22;29629;52.532;13.352;2023-08-06T00:37:49;17.80;99.90
41262;DHT22;29629;52.532;13.352;2023-08-06T00:40:19;17.80;99.90
41262;DHT22;29629;52.532;13.352;2023-08-06T00:42:47;17.80;99.90
41262;DHT22;29629;52.532;13.352;2023-08-06T00:45:13;17.80;99.90
41262;DHT22;29629;52.532;13.352;2023-08-06T00:47:42;17.80;99.90
41262;DHT22;29629;52.532;13.352;2023-08-06T00:50:09;17.70;99.90
41262;DHT22;29629;52.532;13.352;2023-08-06T00:52:36;17.70;99.90
41262;DHT22;29629;52.532;13.352;2023-08-06T00:55:04;17.70;99.90
41262;DHT22;29629;52.532;13.352;2023-08-06T00:57:32;17.70;99.90
41262;DHT22;29629;52.532;13.352;2023-08-06T00:59:59;17.60;99.90
41262;DHT22;29629;52.532;13.352;2023-08-06T01:02:26;17.70;99.90
41262;DHT22;29629;52.532;13.352;2023-08-06T01:04:54;17.70;99.90
41262;DHT22;29629;52.532;13.352;2023-08-06T01:07:32;17.70;99.90
41262;DHT22;29629;52.532;13.352;2023-08-06T01:10:19;17.70;99.90
41262;DHT22;29629;52.532;13.352;2023-08-06T01:12:57;17.70;99.90
41262;DHT22;29629;52.532;13.352;2023-08-06T01:15:35;17.70;99.90
41262;DHT22;29629;52.532;13.352;2023-08-06T01:18:04;17.70;99.90
41262;DHT22;29629;52.532;13.352;2023-08-06T01:20:32;17.60;99.90
41262;DHT22;29629;52.532;13.352;2023-08-06T01:22:59;17.60;99.90
41262;DHT22;29629;52.532;13.352;2023-08-06T01:25:31;17.60;99.90
41262;DHT22;29629;52.532;13.352;2023-08-06T01:28:04;17.60;99.90
41262;DHT22;29629;52.532;13.352;2023-08-06T01:30:33;17.60;99.90
41262;DHT22;29629;52.532;13.352;2023-08-06T01:33:04;17.50;99.90
41262;DHT22;29629;52.532;13.352;2023-08-06T01:35:33;17.50;99.90
41262;DHT22;29629;52.532;13.352;2023-08-06T01:38:02;17.50;99.90
41262;DHT22;29629;52.532;13.352;2023-08-06T01:40:29;17.50;99.90
41262;DHT22;29629;52.532;13.352;2023-08-06T01:42:57;17.50;99.90
41262;DHT22;29629;52.532;13.352;2023-08-06T01:45:24;17.50;99.90
41262;DHT22;29629;52.532;13.352;2023-08-06T01:47:51;17.40;99.90
41262;DHT22;29629;52.532;13.352;2023-08-06T01:50:18;17.40;99.90
41262;DHT22;29629;52.532;13.352;2023-08-06T01:52:46;17.50;99.90
41262;DHT22;29629;52.532;13.352;2023-08-06T01:55:13;17.50;99.90
41262;DHT22;29629;52.532;13.352;2023-08-06T01:57:40;17.40;99.90
41262;DHT22;29629;52.532;13.352;2023-08-06T02:00:08;17.40;99.90
41262;DHT22;29629;52.532;13.352;2023-08-06T02:02:36;17.30;99.90
41262;DHT22;29629;52.532;13.352;2023-08-06T02:05:03;17.30;99.90
41262;DHT22;29629;52.532;13.352;2023-08-06T02:07:30;17.30;99.90
41262;DHT22;29629;52.532;13.352;2023-08-06T02:09:58;17.40;99.90
41262;DHT22;29629;52.532;13.352;2023-08-06T02:12:25;17.30;99.90
41262;DHT22;29629;52.532;13.352;2023-08-06T02:14:52;17.30;99.90
41262;DHT22;29629;52.532;13.352;2023-08-06T02:17:19;17.30;99.90
41262;DHT22;29629;52.532;13.352;2023-08-06T02:19:46;17.20;99.90
41262;DHT22;29629;52.532;13.352;2023-08-06T02:22:13;17.20;99.90
41262;DHT22;29629;52.532;13.352;2023-08-06T02:24:40;17.20;99.90
41262;DHT22;29629;52.532;13.352;2023-08-06T02:27:08;17.20;99.90
41262;DHT22;29629;52.532;13.352;2023-08-06T02:29:35;17.20;99.90
41262;DHT22;29629;52.532;13.352;2023-08-06T02:32:02;17.30;99.90
41262;DHT22;29629;52.532;13.352;2023-08-06T02:34:29;17.30;99.90
41262;DHT22;29629;52.532;13.352;2023-08-06T02:36:56;17.20;99.90
41262;DHT22;29629;52.532;13.352;2023-08-06T02:39:23;17.20;99.90
41262;DHT22;29629;52.532;13.352;2023-08-06T02:41:50;17.20;99.90
41262;DHT22;29629;52.532;13.352;2023-08-06T02:44:18;17.20;99.90
41262;DHT22;29629;52.532;13.352;2023-08-06T02:46:45;17.20;99.90
41262;DHT22;29629;52.532;13.352;2023-08-06T02:49:12;17.20;99.90
41262;DHT22;29629;52.532;13.352;2023-08-06T02:51:39;17.20;99.90
41262;DHT22;29629;52.532;13.352;2023-08-06T02:54:06;17.10;99.90
41262;DHT22;29629;52.532;13.352;2023-08-06T02:56:33;17.10;99.90
41262;DHT22;29629;52.532;13.352;2023-08-06T02:59:00;17.20;99.90
41262;DHT22;29629;52.532;13.352;2023-08-06T03:01:28;17.10;99.90
41262;DHT22;29629;52.532;13.352;2023-08-06T03:03:55;17.10;99.90
41262;DHT22;29629;52.532;13.352;2023-08-06T03:06:22;17.10;99.90
41262;DHT22;29629;52.532;13.352;2023-08-06T03:08:48;17.10;99.90
41262;DHT22;29629;52.532;13.352;2023-08-06T03:11:15;17.10;99.90
41262;DHT22;29629;52.532;13.352;2023-08-06T03:13:42;17.10;99.90
41262;DHT22;29629;52.532;13.352;2023-08-06T03:16:09;17.10;99.90
41262;DHT22;29629;52.532;13.352;2023-08-06T03:18:37;17.00;99.90
41262;DHT22;29629;52.532;13.352;2023-08-06T03:21:04;17.00;99.90
41262;DHT22;29629;52.532;13.352;2023-08-06T03:23:31;17.00;99.90
41262;DHT22;29629;52.532;13.352;2023-08-06T03:26:01;17.00;99.90
41262;DHT22;29629;52.532;13.352;2023-08-06T03:28:28;17.00;99.90
41262;DHT22;29629;52.532;13.352;2023-08-06T03:31:01;16.90;99.90
41262;DHT22;29629;52.532;13.352;2023-08-06T03:33:28;16.90;99.90
41262;DHT22;29629;52.532;13.352;2023-08-06T03:35:57;16.90;99.90
41262;DHT22;29629;52.532;13.352;2023-08-06T03:38:24;16.80;99.90
41262;DHT22;29629;52.532;13.352;2023-08-06T03:40:51;16.80;99.90
41262;DHT22;29629;52.532;13.352;2023-08-06T03:43:17;16.80;99.90
41262;DHT22;29629;52.532;13.352;2023-08-06T03:45:44;16.80;99.90
41262;DHT22;29629;52.532;13.352;2023-08-06T03:48:11;16.80;99.90
41262;DHT22;29629;52.532;13.352;2023-08-06T03:50:38;16.80;99.90
41262;DHT22;29629;52.532;13.352;2023-08-06T03:53:06;16.70;99.90
41262;DHT22;29629;52.532;13.352;2023-08-06T03:55:33;16.70;99.90
41262;DHT22;29629;52.532;13.352;2023-08-06T03:58:00;16.80;99.90
41262;DHT22;29629;52.532;13.352;2023-08-06T04:00:27;16.70;99.90
41262;DHT22;29629;52.532;13.352;2023-08-06T04:02:54;16.70;99.90
41262;DHT22;29629;52.532;13.352;2023-08-06T04:05:21;16.70;99.90
41262;DHT22;29629;52.532;13.352;2023-08-06T04:07:48;16.80;99.90
41262;DHT22;29629;52.532;13.352;2023-08-06T04:10:16;16.70;99.90
41262;DHT22;29629;52.532;13.352;2023-08-06T04:12:43;16.70;99.90
41262;DHT22;29629;52.532;13.352;2023-08-06T04:15:10;16.60;99.90
41262;DHT22;29629;52.532;13.352;2023-08-06T04:17:37;16.60;99.90
41262;DHT22;29629;52.532;13.352;2023-08-06T04:20:05;16.50;99.90
41262;DHT22;29629;52.532;13.352;2023-08-06T04:22:32;16.60;99.90
41262;DHT22;29629;52.532;13.352;2023-08-06T04:24:59;16.60;99.90
41262;DHT22;29629;52.532;13.352;2023-08-06T04:27:27;16.50;99.90
41262;DHT22;29629;52.532;13.352;2023-08-06T04:29:54;16.50;99.90
41262;DHT22;29629;52.532;13.352;2023-08-06T04:32:21;16.60;99.90
41262;DHT22;29629;52.532;13.352;2023-08-06T04:34:48;16.60;99.90
41262;DHT22;29629;52.532;13.352;2023-08-06T04:37:15;16.60;99.90
41262;DHT22;29629;52.532;13.352;2023-08-06T04:39:42;16.70;99.90
41262;DHT22;29629;52.532;13.352;2023-08-06T04:42:09;16.60;99.90
41262;DHT22;29629;52.532;13.352;2023-08-06T04:44:37;16.70;99.90
41262;DHT22;29629;52.532;13.352;2023-08-06T04:47:04;16.70;99.90
41262;DHT22;29629;52.532;13.352;2023-08-06T04:49:31;16.70;99.90
41262;DHT22;29629;52.532;13.352;2023-08-06T04:51:58;16.60;99.90
41262;DHT22;29629;52.532;13.352;2023-08-06T04:54:25;16.60;99.90
41262;DHT22;29629;52.532;13.352;2023-08-06T04:56:51;16.50;99.90
41262;DHT22;29629;52.532;13.352;2023-08-06T04:59:18;16.60;99.90
41262;DHT22;29629;52.532;13.352;2023-08-06T05:01:47;16.60;99.90
41262;DHT22;29629;52.532;13.352;2023-08-06T05:04:14;16.60;99.90
41262;DHT22;29629;52.532;13.352;2023-08-06T05:06:41;16.50;99.90
41262;DHT22;29629;52.532;13.352;2023-08-06T05:09:08;16.60;99.90
41262;DHT22;29629;52.532;13.352;2023-08-06T05:11:34;16.60;99.90
41262;DHT22;29629;52.532;13.352;2023-08-06T05:14:01;16.70;99.90
41262;DHT22;29629;52.532;13.352;2023-08-06T05:16:28;16.70;99.90
41262;DHT22;29629;52.532;13.352;2023-08-06T05:18:57;16.60;99.90
41262;DHT22;29629;52.532;13.352;2023-08-06T05:21:23;16.70;99.90
41262;DHT22;29629;52.532;13.352;2023-08-06T05:23:51;16.70;99.90
41262;DHT22;29629;52.532;13.352;2023-08-06T05:26:17;16.80;99.90
41262;DHT22;29629;52.532;13.352;2023-08-06T05:28:45;16.80;99.90
41262;DHT22;29629;52.532;13.352;2023-08-06T05:31:12;16.80;99.90
41262;DHT22;29629;52.532;13.352;2023-08-06T05:33:39;16.80;99.90
41262;DHT22;29629;52.532;13.352;2023-08-06T05:36:07;16.80;99.90
41262;DHT22;29629;52.532;13.352;2023-08-06T05:38:34;16.80;99.90
41262;DHT22;29629;52.532;13.352;2023-08-06T05:41:01;16.80;99.90
41262;DHT22;29629;52.532;13.352;2023-08-06T05:43:28;16.90;99.90
41262;DHT22;29629;52.532;13.352;2023-08-06T05:45:56;16.90;99.90
41262;DHT22;29629;52.532;13.352;2023-08-06T05:48:23;16.90;99.90
41262;DHT22;29629;52.532;13.352;2023-08-06T05:50:51;16.90;99.90
41262;DHT22;29629;52.532;13.352;2023-08-06T05:53:19;16.80;99.90
41262;DHT22;29629;52.532;13.352;2023-08-06T05:55:47;16.80;99.90
41262;DHT22;29629;52.532;13.352;2023-08-06T05:58:13;16.80;99.90
41262;DHT22;29629;52.532;13.352;2023-08-06T06:00:41;16.80;99.90
41262;DHT22;29629;52.532;13.352;2023-08-06T06:03:07;16.80;99.90
41262;DHT22;29629;52.532;13.352;2023-08-06T06:05:37;16.90;99.90
41262;DHT22;29629;52.532;13.352;2023-08-06T06:08:04;17.00;99.90
41262;DHT22;29629;52.532;13.352;2023-08-06T06:10:32;17.00;99.90
41262;DHT22;29629;52.532;13.352;2023-08-06T06:12:59;17.00;99.90
41262;DHT22;29629;52.532;13.352;2023-08-06T06:15:26;17.10;99.90
41262;DHT22;29629;52.532;13.352;2023-08-06T06:17:53;17.10;99.90
41262;DHT22;29629;52.532;13.352;2023-08-06T06:20:20;17.10;99.90
41262;DHT22;29629;52.532;13.352;2023-08-06T06:22:49;17.20;99.90
41262;DHT22;29629;52.532;13.352;2023-08-06T06:25:16;17.20;99.90
41262;DHT22;29629;52.532;13.352;2023-08-06T06:27:44;17.20;99.90
41262;DHT22;29629;52.532;13.352;2023-08-06T06:30:11;17.20;99.90
41262;DHT22;29629;52.532;13.352;2023-08-06T06:32:38;17.30;99.90
41262;DHT22;29629;52.532;13.352;2023-08-06T06:35:07;17.30;99.90
41262;DHT22;29629;52.532;13.352;2023-08-06T06:37:34;17.40;99.90
41262;DHT22;29629;52.532;13.352;2023-08-06T06:40:01;17.40;99.90
41262;DHT22;29629;52.532;13.352;2023-08-06T06:42:29;17.50;99.90
41262;DHT22;29629;52.532;13.352;2023-08-06T06:44:57;17.50;99.90
41262;DHT22;29629;52.532;13.352;2023-08-06T06:47:24;17.60;99.90
41262;DHT22;29629;52.532;13.352;2023-08-06T06:49:51;17.60;99.90
41262;DHT22;29629;52.532;13.352;2023-08-06T06:52:18;17.60;99.90
41262;DHT22;29629;52.532;13.352;2023-08-06T06:54:45;17.60;99.90
41262;DHT22;29629;52.532;13.352;2023-08-06T06:57:12;17.60;99.90
41262;DHT22;29629;52.532;13.352;2023-08-06T06:59:39;17.60;99.90
41262;DHT22;29629;52.532;13.352;2023-08-06T07:02:07;17.60;99.90
41262;DHT22;29629;52.532;13.352;2023-08-06T07:04:34;17.60;99.90
41262;DHT22;29629;52.532;13.352;2023-08-06T07:07:01;17.80;99.90
41262;DHT22;29629;52.532;13.352;2023-08-06T07:09:28;17.80;99.90
41262;DHT22;29629;52.532;13.352;2023-08-06T07:11:55;17.90;99.90
41262;DHT22;29629;52.532;13.352;2023-08-06T07:14:24;17.60;99.90
41262;DHT22;29629;52.532;13.352;2023-08-06T07:16:51;17.60;99.90
41262;DHT22;29629;52.532;13.352;2023-08-06T07:19:19;17.70;99.90
41262;DHT22;29629;52.532;13.352;2023-08-06T07:21:47;17.80;99.90
41262;DHT22;29629;52.532;13.352;2023-08-06T07:24:14;17.80;99.90
41262;DHT22;29629;52.532;13.352;2023-08-06T07:26:41;17.90;99.90
41262;DHT22;29629;52.532;13.352;2023-08-06T07:29:07;18.00;99.90
41262;DHT22;29629;52.532;13.352;2023-08-06T07:31:34;18.10;99.90
41262;DHT22;29629;52.532;13.352;2023-08-06T07:34:01;17.90;99.90
41262;DHT22;29629;52.532;13.352;2023-08-06T07:36:30;17.90;99.90
41262;DHT22;29629;52.532;13.352;2023-08-06T07:38:57;17.90;99.90
41262;DHT22;29629;52.532;13.352;2023-08-06T07:41:24;17.90;99.90
41262;DHT22;29629;52.532;13.352;2023-08-06T07:43:52;17.90;99.90
41262;DHT22;29629;52.532;13.352;2023-08-06T07:46:18;18.00;99.90
41262;DHT22;29629;52.532;13.352;2023-08-06T07:48:45;17.90;99.90
41262;DHT22;29629;52.532;13.352;2023-08-06T07:51:12;17.90;99.90
41262;DHT22;29629;52.532;13.352;2023-08-06T07:53:41;17.80;99.90
41262;DHT22;29629;52.532;13.352;2023-08-06T07:56:07;17.80;99.90
41262;DHT22;29629;52.532;13.352;2023-08-06T07:58:34;17.80;99.90
41262;DHT22;29629;52.532;13.352;2023-08-06T08:01:01;17.80;99.90
41262;DHT22;29629;52.532;13.352;2023-08-06T08:03:29;17.90;99.90
41262;DHT22;29629;52.532;13.352;2023-08-06T08:05:56;17.90;99.90
41262;DHT22;29629;52.532;13.352;2023-08-06T08:08:25;18.00;99.90
41262;DHT22;29629;52.532;13.352;2023-08-06T08:10:54;18.10;99.90
41262;DHT22;29629;52.532;13.352;2023-08-06T08:13:21;18.10;99.90
41262;DHT22;29629;52.532;13.352;2023-08-06T08:15:48;18.20;99.90
41262;DHT22;29629;52.532;13.352;2023-08-06T08:18:15;18.20;99.90
41262;DHT22;29629;52.532;13.352;2023-08-06T08:20:42;18.30;99.90
41262;DHT22;29629;52.532;13.352;2023-08-06T08:23:09;18.30;99.90
41262;DHT22;29629;52.532;13.352;2023-08-06T08:25:36;18.40;99.90
41262;DHT22;29629;52.532;13.352;2023-08-06T08:28:04;18.50;99.90
41262;DHT22;29629;52.532;13.352;2023-08-06T08:30:31;18.40;99.90
41262;DHT22;29629;52.532;13.352;2023-08-06T08:32:58;18.50;99.90
41262;DHT22;29629;52.532;13.352;2023-08-06T08:35:25;18.50;99.90
41262;DHT22;29629;52.532;13.352;2023-08-06T08:37:52;18.50;99.90
41262;DHT22;29629;52.532;13.352;2023-08-06T08:40:21;18.50;99.90
41262;DHT22;29629;52.532;13.352;2023-08-06T08:42:50;18.60;99.90
41262;DHT22;29629;52.532;13.352;2023-08-06T08:45:20;18.60;99.90
41262;DHT22;29629;52.532;13.352;2023-08-06T08:47:49;18.60;99.90
41262;DHT22;29629;52.532;13.352;2023-08-06T08:50:17;18.70;99.90
41262;DHT22;29629;52.532;13.352;2023-08-06T08:52:45;18.70;99.90
41262;DHT22;29629;52.532;13.352;2023-08-06T08:55:15;18.80;99.90
41262;DHT22;29629;52.532;13.352;2023-08-06T08:57:42;18.90;99.90
41262;DHT22;29629;52.532;13.352;2023-08-06T09:00:11;18.90;99.90
41262;DHT22;29629;52.532;13.352;2023-08-06T09:02:42;19.00;99.90
41262;DHT22;29629;52.532;13.352;2023-08-06T09:05:09;19.10;99.90
41262;DHT22;29629;52.532;13.352;2023-08-06T09:07:41;19.10;99.90
41262;DHT22;29629;52.532;13.352;2023-08-06T09:10:10;19.00;99.90
41262;DHT22;29629;52.532;13.352;2023-08-06T09:12:39;19.00;99.90
41262;DHT22;29629;52.532;13.352;2023-08-06T09:15:07;19.00;99.90
41262;DHT22;29629;52.532;13.352;2023-08-06T09:17:35;19.00;99.90
41262;DHT22;29629;52.532;13.352;2023-08-06T09:20:11;18.80;99.90
41262;DHT22;29629;52.532;13.352;2023-08-06T09:22:38;18.80;99.90
41262;DHT22;29629;52.532;13.352;2023-08-06T09:25:07;18.90;99.90
41262;DHT22;29629;52.532;13.352;2023-08-06T09:27:36;18.90;99.90
41262;DHT22;29629;52.532;13.352;2023-08-06T09:30:03;18.80;99.90
41262;DHT22;29629;52.532;13.352;2023-08-06T09:32:45;18.80;99.90
41262;DHT22;29629;52.532;13.352;2023-08-06T09:35:17;18.90;99.90
41262;DHT22;29629;52.532;13.352;2023-08-06T09:37:44;18.70;99.90
41262;DHT22;29629;52.532;13.352;2023-08-06T09:40:28;18.80;99.90
41262;DHT22;29629;52.532;13.352;2023-08-06T09:42:55;18.70;99.90
41262;DHT22;29629;52.532;13.352;2023-08-06T09:45:23;18.60;99.90
41262;DHT22;29629;52.532;13.352;2023-08-06T09:47:50;18.70;99.90
41262;DHT22;29629;52.532;13.352;2023-08-06T09:50:27;18.90;99.90
41262;DHT22;29629;52.532;13.352;2023-08-06T09:52:56;19.00;99.90
41262;DHT22;29629;52.532;13.352;2023-08-06T09:55:23;19.00;99.90
41262;DHT22;29629;52.532;13.352;2023-08-06T09:57:52;19.10;99.90
41262;DHT22;29629;52.532;13.352;2023-08-06T10:00:20;19.20;99.90
41262;DHT22;29629;52.532;13.352;2023-08-06T10:02:48;19.00;99.90
41262;DHT22;29629;52.532;13.352;2023-08-06T10:05:18;18.90;99.90
41262;DHT22;29629;52.532;13.352;2023-08-06T10:07:47;18.80;99.90
41262;DHT22;29629;52.532;13.352;2023-08-06T10:10:16;18.70;99.90
41262;DHT22;29629;52.532;13.352;2023-08-06T10:12:47;18.50;99.90
41262;DHT22;29629;52.532;13.352;2023-08-06T10:15:17;18.60;99.90
41262;DHT22;29629;52.532;13.352;2023-08-06T10:17:47;18.60;99.90
41262;DHT22;29629;52.532;13.352;2023-08-06T10:20:16;18.60;99.90
41262;DHT22;29629;52.532;13.352;2023-08-06T10:22:46;18.70;99.90
41262;DHT22;29629;52.532;13.352;2023-08-06T10:25:16;18.70;99.90
41262;DHT22;29629;52.532;13.352;2023-08-06T10:27:53;18.80;99.90
41262;DHT22;29629;52.532;13.352;2023-08-06T10:30:24;18.80;99.90
41262;DHT22;29629;52.532;13.352;2023-08-06T10:32:52;18.80;99.90
41262;DHT22;29629;52.532;13.352;2023-08-06T10:35:31;18.80;99.90
41262;DHT22;29629;52.532;13.352;2023-08-06T10:38:03;18.80;99.90
41262;DHT22;29629;52.532;13.352;2023-08-06T10:40:31;18.80;99.90
41262;DHT22;29629;52.532;13.352;2023-08-06T10:43:01;18.90;99.90
41262;DHT22;29629;52.532;13.352;2023-08-06T10:45:28;19.00;99.90
41262;DHT22;29629;52.532;13.352;2023-08-06T10:47:56;18.90;99.90
41262;DHT22;29629;52.532;13.352;2023-08-06T10:50:24;18.90;99.90
41262;DHT22;29629;52.532;13.352;2023-08-06T10:52:52;18.80;99.90
41262;DHT22;29629;52.532;13.352;2023-08-06T10:55:24;18.80;99.90
41262;DHT22;29629;52.532;13.352;2023-08-06T10:57:52;19.00;99.90
41262;DHT22;29629;52.532;13.352;2023-08-06T11:00:21;19.00;99.90
41262;DHT22;29629;52.532;13.352;2023-08-06T11:02:53;19.00;99.90
41262;DHT22;29629;52.532;13.352;2023-08-06T11:05:20;18.90;99.90
41262;DHT22;29629;52.532;13.352;2023-08-06T11:07:47;19.00;99.90
41262;DHT22;29629;52.532;13.352;2023-08-06T11:10:16;19.00;99.90
41262;DHT22;29629;52.532;13.352;2023-08-06T11:12:45;19.00;99.90
41262;DHT22;29629;52.532;13.352;2023-08-06T11:15:12;19.00;99.90
41262;DHT22;29629;52.532;13.352;2023-08-06T11:17:40;19.00;99.90
41262;DHT22;29629;52.532;13.352;2023-08-06T11:20:08;19.00;99.90
41262;DHT22;29629;52.532;13.352;2023-08-06T11:22:36;19.00;99.90
41262;DHT22;29629;52.532;13.352;2023-08-06T11:25:05;19.20;99.90
41262;DHT22;29629;52.532;13.352;2023-08-06T11:27:32;19.30;99.90
41262;DHT22;29629;52.532;13.352;2023-08-06T11:30:01;19.40;99.90
41262;DHT22;29629;52.532;13.352;2023-08-06T11:32:28;19.30;99.90
41262;DHT22;29629;52.532;13.352;2023-08-06T11:34:55;19.30;99.90
41262;DHT22;29629;52.532;13.352;2023-08-06T11:37:22;19.30;99.90
41262;DHT22;29629;52.532;13.352;2023-08-06T11:39:51;19.30;99.90
41262;DHT22;29629;52.532;13.352;2023-08-06T11:42:18;19.30;99.90
41262;DHT22;29629;52.532;13.352;2023-08-06T11:44:45;19.20;99.90
41262;DHT22;29629;52.532;13.352;2023-08-06T11:47:15;19.30;99.90
41262;DHT22;29629;52.532;13.352;2023-08-06T11:49:44;19.30;99.90
41262;DHT22;29629;52.532;13.352;2023-08-06T11:52:14;19.20;99.90
41262;DHT22;29629;52.532;13.352;2023-08-06T11:54:41;19.10;99.90
41262;DHT22;29629;52.532;13.352;2023-08-06T11:57:09;19.10;99.90
41262;DHT22;29629;52.532;13.352;2023-08-06T11:59:37;19.00;99.90
41262;DHT22;29629;52.532;13.352;2023-08-06T12:02:05;19.00;99.90
41262;DHT22;29629;52.532;13.352;2023-08-06T12:07:37;18.80;99.90
41262;DHT22;29629;52.532;13.352;2023-08-06T12:10:05;18.80;99.90
41262;DHT22;29629;52.532;13.352;2023-08-06T12:12:33;18.90;99.90
41262;DHT22;29629;52.532;13.352;2023-08-06T12:15:00;18.80;99.90
41262;DHT22;29629;52.532;13.352;2023-08-06T12:17:30;18.80;99.90
41262;DHT22;29629;52.532;13.352;2023-08-06T12:19:57;18.80;99.90
41262;DHT22;29629;52.532;13.352;2023-08-06T12:22:24;18.80;99.90
41262;DHT22;29629;52.532;13.352;2023-08-06T12:24:52;18.70;99.90
41262;DHT22;29629;52.532;13.352;2023-08-06T12:27:19;18.80;99.90
41262;DHT22;29629;52.532;13.352;2023-08-06T12:29:47;18.90;99.90
41262;DHT22;29629;52.532;13.352;2023-08-06T12:32:15;18.90;99.90
41262;DHT22;29629;52.532;13.352;2023-08-06T12:34:42;18.80;99.90
41262;DHT22;29629;52.532;13.352;2023-08-06T12:37:10;18.80;99.90
41262;DHT22;29629;52.532;13.352;2023-08-06T12:39:37;18.90;99.90
41262;DHT22;29629;52.532;13.352;2023-08-06T12:42:06;18.80;99.90
41262;DHT22;29629;52.532;13.352;2023-08-06T12:44:33;18.80;99.90
41262;DHT22;29629;52.532;13.352;2023-08-06T12:46:59;18.80;99.90
41262;DHT22;29629;52.532;13.352;2023-08-06T12:49:26;18.90;99.90
41262;DHT22;29629;52.532;13.352;2023-08-06T12:51:54;18.90;99.90
41262;DHT22;29629;52.532;13.352;2023-08-06T12:54:22;19.00;99.90
41262;DHT22;29629;52.532;13.352;2023-08-06T12:56:49;18.90;99.90
41262;DHT22;29629;52.532;13.352;2023-08-06T12:59:18;18.70;99.90
41262;DHT22;29629;52.532;13.352;2023-08-06T13:01:45;18.80;99.90
41262;DHT22;29629;52.532;13.352;2023-08-06T13:04:14;18.80;99.90
41262;DHT22;29629;52.532;13.352;2023-08-06T13:06:41;18.70;99.90
41262;DHT22;29629;52.532;13.352;2023-08-06T13:09:08;18.70;99.90
41262;DHT22;29629;52.532;13.352;2023-08-06T13:11:36;18.70;99.90
41262;DHT22;29629;52.532;13.352;2023-08-06T13:14:08;18.80;99.90
41262;DHT22;29629;52.532;13.352;2023-08-06T13:16:37;18.70;99.90
41262;DHT22;29629;52.532;13.352;2023-08-06T13:19:05;18.60;99.90
41262;DHT22;29629;52.532;13.352;2023-08-06T13:21:34;18.60;99.90
41262;DHT22;29629;52.532;13.352;2023-08-06T13:24:01;18.60;99.90
41262;DHT22;29629;52.532;13.352;2023-08-06T13:26:29;18.60;99.90
41262;DHT22;29629;52.532;13.352;2023-08-06T13:28:57;18.60;99.90
41262;DHT22;29629;52.532;13.352;2023-08-06T13:31:25;18.60;99.90
41262;DHT22;29629;52.532;13.352;2023-08-06T13:33:54;18.80;99.90
41262;DHT22;29629;52.532;13.352;2023-08-06T13:36:21;18.60;99.90
41262;DHT22;29629;52.532;13.352;2023-08-06T13:38:49;18.70;99.90
41262;DHT22;29629;52.532;13.352;2023-08-06T13:41:16;18.80;99.90
41262;DHT22;29629;52.532;13.352;2023-08-06T13:43:43;18.70;99.90
41262;DHT22;29629;52.532;13.352;2023-08-06T13:46:10;18.80;99.90
41262;DHT22;29629;52.532;13.352;2023-08-06T13:48:41;18.80;99.90
41262;DHT22;29629;52.532;13.352;2023-08-06T13:51:10;18.90;99.90
41262;DHT22;29629;52.532;13.352;2023-08-06T13:53:37;18.80;99.90
41262;DHT22;29629;52.532;13.352;2023-08-06T13:56:04;18.90;99.90
41262;DHT22;29629;52.532;13.352;2023-08-06T13:58:32;18.90;99.90
41262;DHT22;29629;52.532;13.352;2023-08-06T14:00:59;18.80;99.90
41262;DHT22;29629;52.532;13.352;2023-08-06T14:03:26;18.70;99.90
41262;DHT22;29629;52.532;13.352;2023-08-06T14:05:53;18.10;99.90
41262;DHT22;29629;52.532;13.352;2023-08-06T14:08:24;18.10;99.90
41262;DHT22;29629;52.532;13.352;2023-08-06T14:10:51;18.00;99.90
41262;DHT22;29629;52.532;13.352;2023-08-06T14:13:18;17.90;99.90
41262;DHT22;29629;52.532;13.352;2023-08-06T14:15:45;17.90;99.90
41262;DHT22;29629;52.532;13.352;2023-08-06T14:18:13;17.80;99.90
41262;DHT22;29629;52.532;13.352;2023-08-06T14:20:41;17.80;99.90
41262;DHT22;29629;52.532;13.352;2023-08-06T14:23:08;17.80;99.90
41262;DHT22;29629;52.532;13.352;2023-08-06T14:25:37;17.80;99.90
41262;DHT22;29629;52.532;13.352;2023-08-06T14:28:04;17.90;99.90
41262;DHT22;29629;52.532;13.352;2023-08-06T14:30:32;17.90;99.90
41262;DHT22;29629;52.532;13.352;2023-08-06T14:32:58;17.70;99.90
41262;DHT22;29629;52.532;13.352;2023-08-06T14:35:26;17.90;99.90
41262;DHT22;29629;52.532;13.352;2023-08-06T14:37:53;17.80;99.90
41262;DHT22;29629;52.532;13.352;2023-08-06T14:40:20;17.80;99.90
41262;DHT22;29629;52.532;13.352;2023-08-06T14:42:48;17.80;99.90
41262;DHT22;29629;52.532;13.352;2023-08-06T14:45:15;17.90;99.90
41262;DHT22;29629;52.532;13.352;2023-08-06T14:47:42;17.90;99.90
41262;DHT22;29629;52.532;13.352;2023-08-06T14:50:10;18.00;99.90
41262;DHT22;29629;52.532;13.352;2023-08-06T14:52:37;17.90;99.90
41262;DHT22;29629;52.532;13.352;2023-08-06T14:55:04;18.10;99.90
41262;DHT22;29629;52.532;13.352;2023-08-06T14:57:31;18.10;99.90
41262;DHT22;29629;52.532;13.352;2023-08-06T15:00:00;18.10;99.90
41262;DHT22;29629;52.532;13.352;2023-08-06T15:02:27;18.20;99.90
41262;DHT22;29629;52.532;13.352;2023-08-06T15:04:54;18.30;99.90
41262;DHT22;29629;52.532;13.352;2023-08-06T15:07:21;18.30;99.90
41262;DHT22;29629;52.532;13.352;2023-08-06T15:09:48;18.50;99.90
41262;DHT22;29629;52.532;13.352;2023-08-06T15:12:15;18.50;99.90
41262;DHT22;29629;52.532;13.352;2023-08-06T15:14:43;18.50;99.90
41262;DHT22;29629;52.532;13.352;2023-08-06T15:17:11;18.60;99.90
41262;DHT22;29629;52.532;13.352;2023-08-06T15:19:38;18.60;99.90
41262;DHT22;29629;52.532;13.352;2023-08-06T15:22:05;18.60;99.90